Terminal Aerodrome Forecast
Issued by NWS Portland, OR

Home | Current Version | Previous Version | Text Only | Print | Product List | Glossary On
Versions: 1 2 3 4 5 6 7 8 9 10 11 12 13 14 15 16 17
000
FTUS46 KPQR 222332
TAFTTD
TAF
KTTD 222332Z 2300/2324 27005KT P6SM -SHRAGS SCT030 BKN050 BKN100
     FM230400 VRB03KT P6SM SCT035 BKN060
     FM230800 00000KT 1/4SM FG VV002
     FM231900 27004KT P6SM VCSH SCT010 SCT040=

USA.gov is the U.S. government's official web portal to all federal, state and local government web resources and services.